createdAt,value
2023-04-10T00:00:06.711Z,8.10
2023-04-10T00:02:34.163Z,8.10
2023-04-10T00:05:01.319Z,8.00
2023-04-10T00:07:28.340Z,8.00
2023-04-10T00:09:55.509Z,8.00
2023-04-10T00:12:22.584Z,7.90
2023-04-10T00:14:49.554Z,7.90
2023-04-10T00:17:16.738Z,7.80
2023-04-10T00:19:43.710Z,7.80
2023-04-10T00:22:11.100Z,7.80
2023-04-10T00:24:38.191Z,7.80
2023-04-10T00:27:05.437Z,7.80
2023-04-10T00:29:32.602Z,7.80
2023-04-10T00:31:59.931Z,7.80
2023-04-10T00:34:26.915Z,7.80
2023-04-10T00:36:53.865Z,7.80
2023-04-10T00:39:21.179Z,7.80
2023-04-10T00:41:48.087Z,7.80
2023-04-10T00:44:15.436Z,7.80
2023-04-10T00:46:42.797Z,7.80
2023-04-10T00:49:10.701Z,7.80
2023-04-10T00:51:38.096Z,7.80
2023-04-10T00:54:06.603Z,7.70
2023-04-10T00:56:34.176Z,7.70
2023-04-10T00:59:04.123Z,7.70
2023-04-10T01:01:32.414Z,7.70
2023-04-10T01:04:00.513Z,7.60
2023-04-10T01:07:00.549Z,7.60
2023-04-10T01:09:46.075Z,7.60
2023-04-10T01:12:38.091Z,7.60
2023-04-10T01:15:10.749Z,7.60
2023-04-10T01:18:02.360Z,7.60
2023-04-10T01:20:37.780Z,7.50
2023-04-10T01:23:26.779Z,7.60
2023-04-10T01:26:01.143Z,7.50
2023-04-10T01:28:52.176Z,7.50
2023-04-10T01:31:32.855Z,7.50
2023-04-10T01:34:10.454Z,7.50
2023-04-10T01:36:49.987Z,7.50
2023-04-10T01:39:22.689Z,7.50
2023-04-10T01:41:54.034Z,7.50
2023-04-10T01:44:32.601Z,7.50
2023-04-10T01:47:02.151Z,7.50
2023-04-10T01:49:31.531Z,7.50
2023-04-10T01:52:06.007Z,7.50
2023-04-10T01:54:35.653Z,7.50
2023-04-10T01:57:05.056Z,7.50
2023-04-10T01:59:40.266Z,7.50
2023-04-10T02:02:12.012Z,7.50
2023-04-10T02:04:39.595Z,7.50
2023-04-10T02:08:00.344Z,7.40
2023-04-10T02:10:41.592Z,7.40
2023-04-10T02:13:12.208Z,7.40
2023-04-10T02:15:46.548Z,7.30
2023-04-10T02:18:17.879Z,7.30
2023-04-10T02:20:45.522Z,7.30
2023-04-10T02:23:16.975Z,7.30
2023-04-10T02:25:44.371Z,7.30
2023-04-10T02:28:11.368Z,7.20
2023-04-10T02:30:39.246Z,7.20
2023-04-10T02:33:06.533Z,7.20
2023-04-10T02:35:34.909Z,7.20
2023-04-10T02:38:03.740Z,7.10
2023-04-10T02:40:32.647Z,7.10
2023-04-10T02:43:13.978Z,7.10
2023-04-10T02:45:41.888Z,7.00
2023-04-10T02:48:11.417Z,7.00
2023-04-10T02:50:38.524Z,7.00
2023-04-10T02:53:05.708Z,6.90
2023-04-10T02:55:32.681Z,6.90
2023-04-10T02:57:59.837Z,6.90
2023-04-10T03:00:26.941Z,6.90
2023-04-10T03:03:14.394Z,6.90
2023-04-10T03:05:51.674Z,6.90
2023-04-10T03:08:24.667Z,6.90
2023-04-10T03:10:52.046Z,6.80
2023-04-10T03:13:19.020Z,6.80
2023-04-10T03:15:46.907Z,6.80
2023-04-10T03:18:14.004Z,6.80
2023-04-10T03:20:45.137Z,6.80
2023-04-10T03:23:12.392Z,6.80
2023-04-10T03:25:39.377Z,6.70
2023-04-10T03:28:07.899Z,6.70
2023-04-10T03:30:38.179Z,6.80
2023-04-10T03:33:06.041Z,6.70
2023-04-10T03:35:33.073Z,6.70
2023-04-10T03:38:00.265Z,6.70
2023-04-10T03:40:27.273Z,6.70
2023-04-10T03:42:54.251Z,6.70
2023-04-10T03:45:21.447Z,6.60
2023-04-10T03:47:48.478Z,6.70
2023-04-10T03:50:16.493Z,6.70
2023-04-10T03:52:52.625Z,6.70
2023-04-10T03:55:22.007Z,6.80
2023-04-10T03:57:50.794Z,6.70
2023-04-10T04:00:21.258Z,6.70
2023-04-10T04:02:52.155Z,6.80
2023-04-10T04:05:35.221Z,6.70
2023-04-10T04:08:27.657Z,6.70
2023-04-10T04:11:15.850Z,6.70
2023-04-10T04:14:01.361Z,6.60
2023-04-10T04:16:51.294Z,6.60
2023-04-10T04:19:30.817Z,6.60
2023-04-10T04:22:15.971Z,6.50
2023-04-10T04:25:02.136Z,6.50
2023-04-10T04:27:42.498Z,6.40
2023-04-10T04:30:27.871Z,6.40
2023-04-10T04:33:10.748Z,6.30
2023-04-10T04:35:59.555Z,6.30
2023-04-10T04:38:38.843Z,6.20
2023-04-10T04:41:26.077Z,6.20
2023-04-10T04:44:15.975Z,6.10
2023-04-10T04:47:00.476Z,6.10
2023-04-10T04:49:46.028Z,6.10
2023-04-10T04:52:25.707Z,6.10
2023-04-10T04:55:19.100Z,6.00
2023-04-10T04:57:59.942Z,6.00
2023-04-10T05:00:26.942Z,6.00
2023-04-10T05:03:12.775Z,6.00
2023-04-10T05:06:02.961Z,6.00
2023-04-10T05:08:49.891Z,6.00
2023-04-10T05:11:30.202Z,6.10
2023-04-10T05:13:57.366Z,6.10
2023-04-10T05:16:33.413Z,6.20
2023-04-10T05:19:12.376Z,6.30
2023-04-10T05:22:01.998Z,6.30
2023-04-10T05:24:53.027Z,6.30
2023-04-10T05:27:36.288Z,6.40
2023-04-10T05:30:16.070Z,6.50
2023-04-10T05:33:02.866Z,6.50
2023-04-10T05:35:56.648Z,6.60
2023-04-10T05:38:44.122Z,6.70
2023-04-10T05:41:25.741Z,6.80
2023-04-10T05:44:16.188Z,7.00
2023-04-10T05:47:05.820Z,7.20
2023-04-10T05:49:38.659Z,7.30
2023-04-10T05:52:34.636Z,7.50
2023-04-10T05:55:23.143Z,7.80
2023-04-10T05:58:16.029Z,8.00
2023-04-10T06:01:18.135Z,8.20
2023-04-10T06:03:56.070Z,8.40
2023-04-10T06:06:25.860Z,8.60
2023-04-10T06:08:53.295Z,8.80
2023-04-10T06:11:21.109Z,9.00
2023-04-10T06:13:52.422Z,9.20
2023-04-10T06:16:22.316Z,9.30
2023-04-10T06:18:52.353Z,9.40
2023-04-10T06:21:19.771Z,9.60
2023-04-10T06:23:46.928Z,9.70
2023-04-10T06:26:14.047Z,9.80
2023-04-10T06:28:42.081Z,9.90
2023-04-10T06:31:09.359Z,10.00
2023-04-10T06:33:37.784Z,10.10
2023-04-10T06:36:08.058Z,10.20
2023-04-10T06:38:41.374Z,10.40
2023-04-10T06:41:09.016Z,10.50
2023-04-10T06:43:39.100Z,10.80
2023-04-10T06:46:06.975Z,10.90
2023-04-10T06:48:34.695Z,11.10
2023-04-10T06:51:01.677Z,11.20
2023-04-10T06:53:29.130Z,11.40
2023-04-10T06:55:57.046Z,11.60
2023-04-10T06:58:24.634Z,11.70
2023-04-10T07:00:52.033Z,11.80
2023-04-10T07:03:19.008Z,11.80
2023-04-10T07:05:46.178Z,11.90
2023-04-10T07:08:13.141Z,12.00
2023-04-10T07:10:40.344Z,12.00
2023-04-10T07:13:07.289Z,12.20
2023-04-10T07:15:34.448Z,12.30
2023-04-10T07:18:01.656Z,12.30
2023-04-10T07:20:28.661Z,12.40
2023-04-10T07:22:55.717Z,12.60
2023-04-10T07:25:23.125Z,12.60
2023-04-10T07:27:50.260Z,12.70
2023-04-10T07:30:25.737Z,12.80
2023-04-10T07:32:52.978Z,12.80
2023-04-10T07:35:20.402Z,12.90
2023-04-10T07:37:51.740Z,12.90
2023-04-10T07:40:18.965Z,12.90
2023-04-10T07:42:46.648Z,12.90
2023-04-10T07:45:13.720Z,13.00
2023-04-10T07:47:40.868Z,13.00
2023-04-10T07:50:08.935Z,13.10
2023-04-10T07:52:36.112Z,13.20
2023-04-10T07:55:04.460Z,13.30
2023-04-10T07:57:32.347Z,13.50
2023-04-10T07:59:59.504Z,13.80
2023-04-10T08:02:26.728Z,14.00
2023-04-10T08:04:54.056Z,14.30
2023-04-10T08:07:22.683Z,14.40
2023-04-10T08:09:49.618Z,14.50
2023-04-10T08:12:16.561Z,14.70
2023-04-10T08:14:44.914Z,14.60
2023-04-10T08:17:14.848Z,14.70
2023-04-10T08:19:43.467Z,14.80
2023-04-10T08:22:11.155Z,14.80
2023-04-10T08:24:38.097Z,14.90
2023-04-10T08:27:05.222Z,15.10
2023-04-10T08:29:32.377Z,15.10
2023-04-10T08:32:01.217Z,15.10
2023-04-10T08:34:28.645Z,15.20
2023-04-10T08:36:55.728Z,15.30
2023-04-10T08:39:23.007Z,15.30
2023-04-10T08:41:50.290Z,15.30
2023-04-10T08:44:18.253Z,15.20
2023-04-10T08:46:48.873Z,15.20
2023-04-10T08:49:54.281Z,15.20
2023-04-10T08:52:34.280Z,15.30
2023-04-10T08:55:07.620Z,15.30
2023-04-10T08:57:38.861Z,15.40
2023-04-10T09:00:22.149Z,15.40
2023-04-10T09:02:55.530Z,15.40
2023-04-10T09:05:25.274Z,15.40
2023-04-10T09:07:52.459Z,15.40
2023-04-10T09:10:19.575Z,15.50
2023-04-10T09:12:48.019Z,15.70
2023-04-10T09:15:16.176Z,15.90
2023-04-10T09:18:03.745Z,16.10
2023-04-10T09:20:32.471Z,16.30
2023-04-10T09:23:00.865Z,16.40
2023-04-10T09:25:35.536Z,16.50
2023-04-10T09:28:10.219Z,16.70
2023-04-10T09:30:42.664Z,16.80
2023-04-10T09:33:28.047Z,17.00
2023-04-10T09:35:58.284Z,17.10
2023-04-10T09:38:25.890Z,17.10
2023-04-10T09:40:54.769Z,17.20
2023-04-10T09:43:24.491Z,17.30
2023-04-10T09:45:57.576Z,17.20
2023-04-10T09:48:27.266Z,17.00
2023-04-10T09:50:54.434Z,17.00
2023-04-10T09:53:21.924Z,17.00
2023-04-10T09:55:50.869Z,17.10
2023-04-10T09:58:19.045Z,17.20
2023-04-10T10:00:50.071Z,17.10
2023-04-10T10:03:21.141Z,17.10
2023-04-10T10:05:50.972Z,17.10
2023-04-10T10:08:18.589Z,17.00
2023-04-10T10:10:53.420Z,16.80
2023-04-10T10:13:31.899Z,16.80
2023-04-10T10:16:21.306Z,17.00
2023-04-10T10:20:04.049Z,17.10
2023-04-10T10:22:32.363Z,17.30
2023-04-10T10:25:02.487Z,17.70
2023-04-10T10:27:34.570Z,17.90
2023-04-10T10:30:11.967Z,18.00
2023-04-10T10:32:47.015Z,18.10
2023-04-10T10:35:14.340Z,18.00
2023-04-10T10:37:42.713Z,17.90
2023-04-10T10:40:28.691Z,17.80
2023-04-10T10:43:42.948Z,17.70
2023-04-10T10:46:18.462Z,17.70
2023-04-10T10:49:02.225Z,17.80
2023-04-10T10:51:52.021Z,17.80
2023-04-10T10:54:34.365Z,17.80
2023-04-10T10:57:03.048Z,17.80
2023-04-10T10:59:55.348Z,17.70
2023-04-10T11:02:23.640Z,17.70
2023-04-10T11:04:51.361Z,17.80
2023-04-10T11:07:19.154Z,17.90
2023-04-10T11:09:52.036Z,17.90
2023-04-10T11:12:23.295Z,18.00
2023-04-10T11:15:01.682Z,18.00
2023-04-10T11:17:52.561Z,17.90
2023-04-10T11:20:22.186Z,17.90
2023-04-10T11:23:12.316Z,17.90
2023-04-10T11:25:54.746Z,17.80
2023-04-10T11:28:40.644Z,17.90
2023-04-10T11:31:22.874Z,17.90
2023-04-10T11:34:08.187Z,18.00
2023-04-10T11:36:42.673Z,18.00
2023-04-10T11:39:19.172Z,17.90
2023-04-10T11:41:51.944Z,18.10
2023-04-10T11:44:36.738Z,18.30
2023-04-10T11:47:04.781Z,18.50
2023-04-10T11:49:34.523Z,18.60
2023-04-10T11:52:01.644Z,18.50
2023-04-10T11:54:29.841Z,18.60
2023-04-10T11:57:13.001Z,18.60
2023-04-10T11:59:39.953Z,18.60
2023-04-10T12:02:16.876Z,18.50
2023-04-10T12:04:44.768Z,18.40
2023-04-10T12:07:12.178Z,18.40
2023-04-10T12:09:39.210Z,18.30
2023-04-10T12:12:08.254Z,18.20
2023-04-10T12:14:38.282Z,18.30
2023-04-10T12:17:09.544Z,18.40
2023-04-10T12:19:38.296Z,18.40
2023-04-10T12:22:05.659Z,18.50
2023-04-10T12:24:53.725Z,18.50
2023-04-10T12:27:28.782Z,18.70
2023-04-10T12:29:57.927Z,18.90
2023-04-10T12:32:27.818Z,18.90
2023-04-10T12:34:59.142Z,19.20
2023-04-10T12:37:48.230Z,19.20
2023-04-10T12:40:15.506Z,19.20
2023-04-10T12:42:43.699Z,19.10
2023-04-10T12:45:14.179Z,19.00
2023-04-10T12:47:53.820Z,19.20
2023-04-10T12:50:21.224Z,19.20
2023-04-10T12:53:09.342Z,19.20
2023-04-10T12:55:36.594Z,19.20
2023-04-10T12:58:22.893Z,19.10
2023-04-10T13:00:50.434Z,18.90
2023-04-10T13:03:27.097Z,18.90
2023-04-10T13:05:54.689Z,18.80
2023-04-10T13:08:23.066Z,18.80
2023-04-10T13:10:50.493Z,18.80
2023-04-10T13:13:18.037Z,18.70
2023-04-10T13:15:45.366Z,18.60
2023-04-10T13:18:14.834Z,18.60
2023-04-10T13:20:42.030Z,18.70
2023-04-10T13:23:09.284Z,18.60
2023-04-10T13:25:40.760Z,18.60
2023-04-10T13:28:11.166Z,18.40
2023-04-10T13:30:42.440Z,18.30
2023-04-10T13:33:10.971Z,18.20
2023-04-10T13:35:40.083Z,18.00
2023-04-10T13:38:07.406Z,18.10
2023-04-10T13:40:34.610Z,18.00
2023-04-10T13:43:01.666Z,18.10
2023-04-10T13:45:28.718Z,18.10
2023-04-10T13:47:55.864Z,18.10
2023-04-10T13:50:22.969Z,18.10
2023-04-10T13:52:51.581Z,18.20
2023-04-10T13:55:20.112Z,18.20
2023-04-10T13:57:47.027Z,18.20
2023-04-10T14:00:14.810Z,18.30
2023-04-10T14:02:42.660Z,18.30
2023-04-10T14:05:10.398Z,18.40
2023-04-10T14:07:37.597Z,18.40
2023-04-10T14:10:05.360Z,18.40
2023-04-10T14:12:32.669Z,18.40
2023-04-10T14:14:59.781Z,18.30
2023-04-10T14:17:28.020Z,18.30
2023-04-10T14:19:55.115Z,18.30
2023-04-10T14:22:22.258Z,18.40
2023-04-10T14:24:51.055Z,18.40
2023-04-10T14:27:19.480Z,18.40
2023-04-10T14:29:54.342Z,18.50
2023-04-10T14:32:22.368Z,18.50
2023-04-10T14:34:50.128Z,18.60
2023-04-10T14:37:27.753Z,18.70
2023-04-10T14:39:55.740Z,18.70
2023-04-10T14:42:23.840Z,18.70
2023-04-10T14:44:50.971Z,18.80
2023-04-10T14:47:18.463Z,18.80
2023-04-10T14:49:45.446Z,18.80
2023-04-10T14:52:12.592Z,18.70
2023-04-10T14:54:39.554Z,18.60
2023-04-10T14:57:06.593Z,18.60
2023-04-10T14:59:33.731Z,18.60
2023-04-10T15:02:00.760Z,18.60
2023-04-10T15:04:28.326Z,18.50
2023-04-10T15:06:55.469Z,18.40
2023-04-10T15:09:22.420Z,18.40
2023-04-10T15:11:49.452Z,18.30
2023-04-10T15:14:16.384Z,18.30
2023-04-10T15:16:43.551Z,18.30
2023-04-10T15:19:10.925Z,18.30
2023-04-10T15:21:37.889Z,18.30
2023-04-10T15:24:07.388Z,18.20
2023-04-10T15:26:34.994Z,18.20
2023-04-10T15:29:01.929Z,18.20
2023-04-10T15:31:29.171Z,18.20
2023-04-10T15:33:56.225Z,18.20
2023-04-10T15:36:23.295Z,18.10
2023-04-10T15:38:50.536Z,18.10
2023-04-10T15:41:18.146Z,18.00
2023-04-10T15:43:45.104Z,18.00
2023-04-10T15:46:12.330Z,18.00
2023-04-10T15:48:39.452Z,17.90
2023-04-10T15:51:07.515Z,17.90
2023-04-10T15:53:35.651Z,17.90
2023-04-10T15:56:05.733Z,17.90
2023-04-10T15:58:34.012Z,17.90
2023-04-10T16:01:01.735Z,18.00
2023-04-10T16:03:30.641Z,18.00
2023-04-10T16:05:58.449Z,18.00
2023-04-10T16:08:26.310Z,18.00
2023-04-10T16:10:54.170Z,17.90
2023-04-10T16:13:21.556Z,17.90
2023-04-10T16:15:50.455Z,17.90
2023-04-10T16:18:18.485Z,17.80
2023-04-10T16:20:46.233Z,17.80
2023-04-10T16:23:13.693Z,17.80
2023-04-10T16:25:41.412Z,17.80
2023-04-10T16:28:42.146Z,17.80
2023-04-10T16:31:35.572Z,17.60
2023-04-10T16:34:02.614Z,17.30
2023-04-10T16:36:29.557Z,17.10
2023-04-10T16:38:56.743Z,16.90
2023-04-10T16:41:24.146Z,16.70
2023-04-10T16:43:51.092Z,16.60
2023-04-10T16:46:18.425Z,16.40
2023-04-10T16:48:45.648Z,16.20
2023-04-10T16:51:17.908Z,16.10
2023-04-10T16:53:45.209Z,15.90
2023-04-10T16:56:12.407Z,15.80
2023-04-10T16:58:41.855Z,15.80
2023-04-10T17:01:21.554Z,15.70
2023-04-10T17:03:49.160Z,15.50
2023-04-10T17:06:17.105Z,15.50
2023-04-10T17:08:45.096Z,15.40
2023-04-10T17:11:12.909Z,15.40
2023-04-10T17:13:43.485Z,15.30
2023-04-10T17:16:34.403Z,15.10
2023-04-10T17:19:12.351Z,15.10
2023-04-10T17:21:39.383Z,15.00
2023-04-10T17:24:06.478Z,14.90
2023-04-10T17:26:33.791Z,14.80
2023-04-10T17:29:00.833Z,14.70
2023-04-10T17:31:28.599Z,14.60
2023-04-10T17:33:55.704Z,14.60
2023-04-10T17:36:22.836Z,14.50
2023-04-10T17:38:53.686Z,14.50
2023-04-10T17:41:21.282Z,14.40
2023-04-10T17:43:49.283Z,14.40
2023-04-10T17:46:17.041Z,14.30
2023-04-10T17:48:44.643Z,14.30
2023-04-10T17:51:12.148Z,14.30
2023-04-10T17:53:47.431Z,14.30
2023-04-10T17:56:21.906Z,14.20
2023-04-10T17:59:02.331Z,14.20
2023-04-10T18:01:33.609Z,14.20
2023-04-10T18:04:04.515Z,14.10
2023-04-10T18:06:31.964Z,14.10
2023-04-10T18:08:59.240Z,14.10
2023-04-10T18:11:26.437Z,14.00
2023-04-10T18:13:53.519Z,14.00
2023-04-10T18:16:20.779Z,14.00
2023-04-10T18:18:47.802Z,13.90
2023-04-10T18:21:15.388Z,13.90
2023-04-10T18:23:44.411Z,13.80
2023-04-10T18:26:12.739Z,13.70
2023-04-10T18:28:42.136Z,13.70
2023-04-10T18:31:09.565Z,13.70
2023-04-10T18:33:36.669Z,13.60
2023-04-10T18:36:04.005Z,13.50
2023-04-10T18:38:33.660Z,13.50
2023-04-10T18:41:00.861Z,13.40
2023-04-10T18:43:28.080Z,13.40
2023-04-10T18:45:55.692Z,13.40
2023-04-10T18:48:23.037Z,13.30
2023-04-10T18:50:53.776Z,13.20
2023-04-10T18:53:22.118Z,13.20
2023-04-10T18:55:53.523Z,13.20
2023-04-10T18:58:22.114Z,13.10
2023-04-10T19:00:49.609Z,13.10
2023-04-10T19:03:16.965Z,13.10
2023-04-10T19:05:44.456Z,13.10
2023-04-10T19:08:14.677Z,13.10
2023-04-10T19:10:42.964Z,13.00
2023-04-10T19:13:12.130Z,12.90
2023-04-10T19:15:45.366Z,12.70
2023-04-10T19:18:14.126Z,12.60
2023-04-10T19:20:50.268Z,12.50
2023-04-10T19:23:19.512Z,12.40
2023-04-10T19:25:47.166Z,12.30
2023-04-10T19:28:14.234Z,12.20
2023-04-10T19:30:41.309Z,12.10
2023-04-10T19:33:08.488Z,12.10
2023-04-10T19:35:35.835Z,12.00
2023-04-10T19:38:02.973Z,12.00
2023-04-10T19:40:31.719Z,12.00
2023-04-10T19:43:00.428Z,11.90
2023-04-10T19:56:46.931Z,11.90
2023-04-10T20:03:24.420Z,12.00
2023-04-10T20:09:55.214Z,11.90
2023-04-10T20:12:36.983Z,11.90
2023-04-10T20:15:36.840Z,11.80
2023-04-10T20:28:28.710Z,11.70
2023-04-10T20:30:28.214Z,11.60
2023-04-10T20:32:55.432Z,11.60
2023-04-10T20:35:23.062Z,11.70
2023-04-10T20:37:50.079Z,11.70
2023-04-10T20:40:17.237Z,11.60
2023-04-10T20:42:44.297Z,11.70
2023-04-10T20:45:13.651Z,11.60
2023-04-10T20:47:41.093Z,11.60
2023-04-10T20:50:09.730Z,11.70
2023-04-10T20:52:58.553Z,11.70
2023-04-10T20:55:34.197Z,11.60
2023-04-10T20:58:04.992Z,11.60
2023-04-10T21:00:32.495Z,11.40
2023-04-10T21:03:00.173Z,11.40
2023-04-10T21:05:27.419Z,11.40
2023-04-10T21:08:25.530Z,11.30
2023-04-10T21:11:10.812Z,11.30
2023-04-10T21:13:44.793Z,11.20
2023-04-10T21:16:26.315Z,11.20
2023-04-10T21:19:04.709Z,11.20
2023-04-10T21:21:36.975Z,11.10
2023-04-10T21:24:04.600Z,11.10
2023-04-10T21:26:32.206Z,11.10
2023-04-10T21:28:59.266Z,11.10
2023-04-10T21:31:26.758Z,11.10
2023-04-10T21:33:54.299Z,11.00
2023-04-10T21:36:21.526Z,11.00
2023-04-10T21:38:48.473Z,11.00
2023-04-10T21:41:15.543Z,11.00
2023-04-10T21:43:43.200Z,10.90
2023-04-10T21:46:10.988Z,10.90
2023-04-10T21:48:38.084Z,10.90
2023-04-10T21:51:05.815Z,10.90
2023-04-10T21:53:33.440Z,10.90
2023-04-10T21:56:00.622Z,10.90
2023-04-10T21:58:27.714Z,10.90
2023-04-10T22:00:54.981Z,10.90
2023-04-10T22:03:22.423Z,10.90
2023-04-10T22:05:50.576Z,10.90
2023-04-10T22:08:19.908Z,10.90
2023-04-10T22:10:48.118Z,10.90
2023-04-10T22:13:27.438Z,10.90
2023-04-10T22:15:58.305Z,10.80
2023-04-10T22:18:25.376Z,10.80
2023-04-10T22:20:52.634Z,10.80
2023-04-10T22:23:19.649Z,10.80
2023-04-10T22:25:46.822Z,10.80
2023-04-10T22:28:14.374Z,10.80
2023-04-10T22:30:41.610Z,10.80
2023-04-10T22:33:11.826Z,10.80
2023-04-10T22:35:38.943Z,10.70
2023-04-10T22:38:07.812Z,10.70
2023-04-10T22:40:35.057Z,10.60
2023-04-10T22:43:02.367Z,10.60
2023-04-10T22:45:29.506Z,10.60
2023-04-10T22:47:56.772Z,10.50
2023-04-10T22:50:27.448Z,10.50
2023-04-10T22:53:05.092Z,10.50
2023-04-10T22:55:35.384Z,10.50
2023-04-10T22:58:02.666Z,10.50
2023-04-10T23:00:29.994Z,10.50
2023-04-10T23:02:57.112Z,10.50
2023-04-10T23:05:24.318Z,10.50
2023-04-10T23:07:51.419Z,10.60
2023-04-10T23:10:20.245Z,10.60
2023-04-10T23:12:47.506Z,10.70
2023-04-10T23:15:14.561Z,10.70
2023-04-10T23:17:41.622Z,10.80
2023-04-10T23:20:09.510Z,10.70
2023-04-10T23:22:36.539Z,10.80
2023-04-10T23:25:03.783Z,10.80
2023-04-10T23:27:30.937Z,10.80
2023-04-10T23:29:57.929Z,10.70
2023-04-10T23:32:25.033Z,10.70
2023-04-10T23:34:52.095Z,10.70
2023-04-10T23:37:19.122Z,10.70
2023-04-10T23:39:46.716Z,10.80
2023-04-10T23:42:13.713Z,10.80
2023-04-10T23:44:40.883Z,10.80
2023-04-10T23:47:08.057Z,10.70
2023-04-10T23:49:35.509Z,10.80
2023-04-10T23:52:02.698Z,10.70
2023-04-10T23:54:30.387Z,10.70
2023-04-10T23:56:57.366Z,10.70
2023-04-10T23:59:24.401Z,10.70
